Time;durP1;ratioP1;P1;durP2;ratioP2;P2;SDS_P1;SDS_P2;PMS_P1;PMS_P2;Temp;Humidity;BMP_temperature;BMP_pressure;BME280_temperature;BME280_humidity;BME280_pressure;Samples;Min_cycle;Max_cycle;Signal;HPM_P1;HPM_P2
2021/06/10 00:01:37;;;;;;;10.50;7.20;;;;;;;13.51;86.66;94528.61;1614179;88;21169;-56
2021/06/10 00:04:04;;;;;;;9.60;6.45;;;;;;;13.46;86.66;94524.48;1561732;90;21026;-57
2021/06/10 00:06:30;;;;;;;8.35;6.33;;;;;;;13.42;86.83;94520.39;1561023;90;21002;-56
2021/06/10 00:08:58;;;;;;;7.22;5.87;;;;;;;13.40;87.04;94529.75;1556624;90;21233;-56
2021/06/10 00:11:24;;;;;;;7.30;6.10;;;;;;;13.36;86.69;94520.27;1604566;88;21500;-55
2021/06/10 00:13:51;;;;;;;6.47;5.87;;;;;;;13.31;86.67;94520.14;1609611;88;21587;-56
2021/06/10 00:16:19;;;;;;;8.83;5.75;;;;;;;13.26;86.47;94522.18;1604023;88;20982;-56
2021/06/10 00:18:49;;;;;;;9.08;6.12;;;;;;;13.17;86.38;94519.45;1574338;90;21073;-55
2021/06/10 00:21:15;;;;;;;11.40;5.97;;;;;;;13.09;86.41;94526.56;1562568;90;22364;-55
2021/06/10 00:23:43;;;;;;;7.75;5.72;;;;;;;13.00;86.34;94532.12;1552356;90;21706;-56
2021/06/10 00:26:09;;;;;;;6.85;6.10;;;;;;;12.91;86.66;94523.86;1567298;90;21606;-56
2021/06/10 00:28:36;;;;;;;8.70;6.33;;;;;;;12.86;86.79;94527.27;1600288;88;21115;-55
2021/06/10 00:31:03;;;;;;;7.03;6.17;;;;;;;12.83;86.90;94518.52;1603759;88;21041;-56
2021/06/10 00:33:30;;;;;;;6.10;5.50;;;;;;;12.81;86.77;94516.23;1602056;88;21163;-57
2021/06/10 00:35:58;;;;;;;15.48;6.17;;;;;;;12.77;86.65;94519.01;1569230;90;21091;-57
2021/06/10 00:38:25;;;;;;;7.30;6.00;;;;;;;12.73;86.41;94521.17;1543732;91;21040;-55
2021/06/10 00:40:51;;;;;;;8.53;6.65;;;;;;;12.68;86.57;94520.44;1561548;91;21054;-56
2021/06/10 00:43:18;;;;;;;7.25;6.42;;;;;;;12.63;86.80;94510.78;1568415;90;21062;-56
2021/06/10 00:45:44;;;;;;;9.55;5.90;;;;;;;12.59;87.04;94512.17;1580798;90;21127;-55
2021/06/10 00:48:11;;;;;;;8.33;6.05;;;;;;;12.55;87.04;94514.34;1541112;91;21041;-56
2021/06/10 00:50:43;;;;;;;6.58;5.87;;;;;;;12.52;86.94;94513.12;1529304;91;21581;-56
2021/06/10 00:53:21;;;;;;;9.73;5.78;;;;;;;12.50;87.09;94510.06;1540283;91;21106;-56
2021/06/10 00:55:39;;;;;;;8.90;5.67;;;;;;;12.49;87.26;94507.16;1592245;88;21132;-56
2021/06/10 00:58:06;;;;;;;11.08;5.85;;;;;;;12.47;87.17;94502.09;1607618;88;21226;-55
2021/06/10 01:00:32;;;;;;;7.50;5.67;;;;;;;12.46;87.22;94497.80;1619548;86;21186;-56
2021/06/10 01:02:59;;;;;;;6.80;5.83;;;;;;;12.49;87.32;94496.86;1623810;87;21515;-55
2021/06/10 01:05:26;;;;;;;10.58;5.80;;;;;;;12.51;87.18;94504.09;1624454;87;21091;-55
2021/06/10 01:08:07;;;;;;;6.37;5.78;;;;;;;12.52;87.23;94497.34;1612864;87;21088;-56
2021/06/10 01:10:51;;;;;;;6.90;5.95;;;;;;;12.53;86.97;94493.34;1616684;87;21247;-56
2021/06/10 01:13:41;;;;;;;7.47;5.22;;;;;;;12.51;86.95;94495.81;1622990;87;20975;-55
2021/06/10 01:16:09;;;;;;;6.17;5.40;;;;;;;12.47;86.65;94486.91;1608752;87;21065;-56
2021/06/10 01:18:36;;;;;;;6.55;5.87;;;;;;;12.46;86.73;94484.63;1595187;87;21184;-55
2021/06/10 01:21:04;;;;;;;8.50;5.78;;;;;;;12.47;86.85;94486.91;1622545;87;21202;-54
2021/06/10 01:24:00;;;;;;;8.05;5.72;;;;;;;12.48;86.62;94488.44;1623688;87;21208;-55
2021/06/10 01:26:48;;;;;;;7.17;5.55;;;;;;;12.48;86.40;94489.81;1625187;87;21130;-55
2021/06/10 01:29:14;;;;;;;6.15;5.50;;;;;;;12.44;86.07;94483.70;1614835;87;21533;-56
2021/06/10 01:31:41;;;;;;;5.85;5.35;;;;;;;12.43;86.23;94489.08;1614739;88;21060;-56
2021/06/10 01:34:08;;;;;;;8.08;5.75;;;;;;;12.40;85.90;94490.02;1606046;88;20988;-55
2021/06/10 01:36:39;;;;;;;6.33;5.33;;;;;;;12.36;86.14;94485.88;1585525;88;21576;-58
2021/06/10 01:39:08;;;;;;;5.87;5.15;;;;;;;12.34;86.04;94491.88;1595549;88;21047;-57
2021/06/10 01:41:35;;;;;;;6.80;5.35;;;;;;;12.32;85.93;94482.53;1595942;88;22208;-56
2021/06/10 01:44:02;;;;;;;8.70;5.50;;;;;;;12.26;85.85;94482.38;1598903;88;21206;-57
2021/06/10 01:46:31;;;;;;;6.12;5.03;;;;;;;12.25;86.15;94478.73;1599412;88;21643;-56
2021/06/10 01:48:58;;;;;;;6.50;5.25;;;;;;;12.25;86.12;94485.63;1596546;88;21861;-56
2021/06/10 01:51:29;;;;;;;6.92;5.03;;;;;;;12.23;85.84;94484.69;1599319;88;21059;-56
2021/06/10 01:53:58;;;;;;;9.05;6.80;;;;;;;12.19;86.02;94474.45;1597793;88;21088;-56
2021/06/10 01:56:26;;;;;;;5.90;4.87;;;;;;;12.23;86.11;94481.94;1606398;88;21072;-57
2021/06/10 01:58:53;;;;;;;6.75;5.60;;;;;;;12.25;86.00;94480.11;1602913;88;21082;-55
2021/06/10 02:01:27;;;;;;;8.68;5.87;;;;;;;12.21;85.94;94477.50;1597813;88;21523;-56
2021/06/10 02:03:56;;;;;;;8.23;4.80;;;;;;;12.18;86.15;94475.67;1571601;90;21073;-55
2021/06/10 02:06:23;;;;;;;8.28;5.08;;;;;;;12.14;86.07;94476.45;1610489;87;20986;-57
2021/06/10 02:08:50;;;;;;;8.60;5.35;;;;;;;12.10;86.25;94477.21;1608711;88;21025;-55
2021/06/10 02:11:17;;;;;;;8.40;6.35;;;;;;;12.11;86.56;94473.22;1611608;88;21069;-56
2021/06/10 02:13:44;;;;;;;8.15;5.55;;;;;;;12.17;86.69;94473.37;1612823;87;21205;-56
2021/06/10 02:16:12;;;;;;;8.30;6.25;;;;;;;12.17;86.58;94478.28;1614652;88;20998;-56
2021/06/10 02:18:40;;;;;;;7.80;6.33;;;;;;;12.18;86.66;94483.95;1605947;87;21100;-56
2021/06/10 02:21:10;;;;;;;13.10;8.83;;;;;;;12.18;87.02;94471.54;1613822;87;21073;-56
2021/06/10 02:23:38;;;;;;;10.85;8.63;;;;;;;12.21;87.28;94477.50;1610390;88;21067;-56
2021/06/10 02:26:05;;;;;;;9.55;7.33;;;;;;;12.24;87.39;94475.19;1607679;88;21948;-56
2021/06/10 02:28:34;;;;;;;29.95;23.15;;;;;;;12.27;87.34;94465.23;1610532;87;21223;-56
2021/06/10 02:31:02;;;;;;;27.73;20.08;;;;;;;12.31;87.36;94467.98;1625245;87;21151;-56
2021/06/10 02:33:29;;;;;;;12.80;7.92;;;;;;;12.35;87.07;94461.69;1624977;87;21110;-56
2021/06/10 02:35:55;;;;;;;9.70;8.38;;;;;;;12.35;87.30;94465.82;1616028;87;21652;-56
2021/06/10 02:38:24;;;;;;;12.10;10.15;;;;;;;12.37;87.29;94463.36;1595430;88;21221;-56
2021/06/10 02:40:53;;;;;;;8.10;7.20;;;;;;;12.41;87.58;94468.09;1611096;88;20946;-55
2021/06/10 02:43:19;;;;;;;10.38;6.78;;;;;;;12.44;87.35;94463.65;1610483;88;21025;-55
2021/06/10 02:45:47;;;;;;;9.13;6.50;;;;;;;12.44;87.25;94463.02;1615549;87;21041;-56
2021/06/10 02:48:14;;;;;;;7.28;6.33;;;;;;;12.46;87.22;94463.94;1611949;87;21136;-55
2021/06/10 02:50:42;;;;;;;10.03;7.08;;;;;;;12.48;87.42;94464.98;1609820;87;21843;-56
2021/06/10 02:53:15;;;;;;;6.78;5.50;;;;;;;12.52;87.25;94468.36;1608708;88;21483;-54
2021/06/10 02:55:43;;;;;;;9.08;6.30;;;;;;;12.55;87.10;94462.66;1569653;90;21069;-55
2021/06/10 02:58:13;;;;;;;7.12;5.20;;;;;;;12.56;86.90;94464.81;1548766;91;21083;-62
2021/06/10 03:00:40;;;;;;;5.03;4.60;;;;;;;12.54;86.78;94466.66;1557671;90;21447;-62
2021/06/10 03:03:07;;;;;;;5.53;5.03;;;;;;;12.57;86.78;94466.34;1556193;91;21823;-60
2021/06/10 03:05:34;;;;;;;13.15;5.72;;;;;;;12.58;86.39;94473.39;1524967;91;20994;-60
2021/06/10 03:08:01;;;;;;;5.62;5.03;;;;;;;12.56;86.18;94467.58;1558817;90;21620;-58
2021/06/10 03:10:32;;;;;;;10.68;5.78;;;;;;;12.56;86.34;94468.95;1553632;91;21125;-55
2021/06/10 03:12:57;;;;;;;6.50;5.90;;;;;;;12.59;86.30;94469.41;1550790;91;21054;-55
2021/06/10 03:15:24;;;;;;;8.05;6.22;;;;;;;12.60;86.05;94465.41;1585536;88;21152;-55
2021/06/10 03:17:51;;;;;;;6.65;6.00;;;;;;;12.59;85.68;94472.16;1592743;88;21037;-55
2021/06/10 03:20:17;;;;;;;8.98;6.37;;;;;;;12.56;85.57;94466.95;1613432;87;21639;-56
2021/06/10 03:22:44;;;;;;;8.03;6.37;;;;;;;12.53;85.52;94463.00;1601592;88;21540;-55
2021/06/10 03:25:11;;;;;;;7.40;6.70;;;;;;;12.52;85.64;94466.20;1584337;88;21062;-55
2021/06/10 03:27:37;;;;;;;7.60;6.80;;;;;;;12.50;85.55;94463.94;1599982;87;21170;-52
2021/06/10 03:30:06;;;;;;;6.70;6.00;;;;;;;12.48;85.24;94467.74;1609678;87;20977;-53
2021/06/10 03:32:33;;;;;;;8.53;6.20;;;;;;;12.44;85.25;94469.91;1587399;88;20989;-57
2021/06/10 03:35:01;;;;;;;8.55;6.33;;;;;;;12.42;85.72;94464.09;1609670;87;21104;-59
2021/06/10 03:37:28;;;;;;;13.00;9.55;;;;;;;12.46;86.06;94470.84;1585044;88;21876;-58
2021/06/10 03:39:56;;;;;;;17.40;10.72;;;;;;;12.48;85.97;94478.03;1609052;87;21158;-56
2021/06/10 03:42:23;;;;;;;9.73;7.95;;;;;;;12.49;86.37;94480.94;1592832;88;21547;-54
2021/06/10 03:44:49;;;;;;;18.55;11.43;;;;;;;12.55;86.39;94473.70;1597277;88;21029;-55
2021/06/10 03:47:16;;;;;;;17.12;10.28;;;;;;;12.59;86.41;94470.18;1614661;88;21010;-55
2021/06/10 03:49:43;;;;;;;12.43;10.08;;;;;;;12.68;86.51;94473.52;1612543;88;21018;-55
2021/06/10 03:52:10;;;;;;;12.33;9.10;;;;;;;12.74;86.67;94475.14;1595472;88;21631;-56
2021/06/10 03:54:37;;;;;;;11.03;8.65;;;;;;;12.80;86.61;94475.28;1616778;86;21592;-56
2021/06/10 03:57:07;;;;;;;15.90;10.23;;;;;;;12.89;86.54;94468.34;1617004;87;21017;-56
2021/06/10 03:59:33;;;;;;;18.95;14.58;;;;;;;13.00;86.54;94474.91;1606790;88;21071;-51
2021/06/10 04:02:02;;;;;;;16.05;13.00;;;;;;;13.12;86.38;94467.63;1611506;88;21014;-59
2021/06/10 04:04:29;;;;;;;12.63;10.00;;;;;;;13.24;86.23;94466.64;1610389;87;22070;-54
2021/06/10 04:06:57;;;;;;;12.30;8.38;;;;;;;13.36;86.13;94471.14;1614995;87;21542;-55
2021/06/10 04:09:24;;;;;;;8.85;7.28;;;;;;;13.48;85.84;94475.67;1611737;88;21128;-54
2021/06/10 04:11:52;;;;;;;10.55;8.70;;;;;;;13.60;85.56;94472.65;1613385;89;21123;-54
2021/06/10 04:14:18;;;;;;;13.48;10.60;;;;;;;13.70;84.76;94469.19;1611535;87;21579;-55
2021/06/10 04:16:45;;;;;;;16.57;12.18;;;;;;;13.74;84.58;94463.63;1603086;89;21986;-55
2021/06/10 04:19:14;;;;;;;15.38;10.20;;;;;;;13.80;84.36;94459.59;1608611;88;21556;-54
2021/06/10 04:21:42;;;;;;;9.55;7.47;;;;;;;13.85;83.95;94468.61;1611899;88;20980;-55
2021/06/10 04:24:10;;;;;;;12.47;8.63;;;;;;;13.86;83.71;94467.36;1606183;88;21012;-56
2021/06/10 04:26:36;;;;;;;11.08;8.50;;;;;;;13.86;83.55;94472.30;1600769;88;21072;-55
2021/06/10 04:29:04;;;;;;;10.30;8.20;;;;;;;13.87;83.78;94466.91;1615599;88;21189;-56
2021/06/10 04:31:31;;;;;;;8.08;7.05;;;;;;;13.89;83.65;94469.17;1614717;88;21096;-55
2021/06/10 04:33:58;;;;;;;7.28;6.58;;;;;;;13.88;83.47;94468.43;1611068;87;21030;-56
2021/06/10 04:36:24;;;;;;;8.55;7.65;;;;;;;13.95;82.99;94470.03;1615753;88;21005;-56
2021/06/10 04:38:51;;;;;;;8.40;7.60;;;;;;;14.04;82.91;94471.34;1622361;88;20988;-56
2021/06/10 04:41:18;;;;;;;9.30;7.50;;;;;;;14.17;82.80;94471.88;1615954;88;21863;-56
2021/06/10 04:43:45;;;;;;;7.83;6.60;;;;;;;14.32;82.73;94467.11;1601129;88;21087;-55
2021/06/10 04:46:12;;;;;;;14.60;8.20;;;;;;;14.47;82.52;94465.21;1614519;87;20978;-55
2021/06/10 04:48:38;;;;;;;8.40;6.83;;;;;;;14.68;82.41;94469.60;1615448;87;21049;-56
2021/06/10 04:51:06;;;;;;;8.50;7.05;;;;;;;14.91;82.09;94465.14;1617418;88;21017;-55
2021/06/10 04:53:35;;;;;;;8.05;6.37;;;;;;;15.05;81.23;94473.44;1597139;88;22607;-54
2021/06/10 04:56:02;;;;;;;11.15;6.47;;;;;;;15.20;80.43;94468.59;1601990;88;21164;-56
2021/06/10 04:58:29;;;;;;;10.15;6.62;;;;;;;15.34;79.41;94462.91;1607335;88;21595;-56
2021/06/10 05:00:56;;;;;;;6.70;4.90;;;;;;;15.50;78.36;94472.03;1599542;88;21171;-56
2021/06/10 05:03:23;;;;;;;6.58;4.55;;;;;;;15.62;77.67;94468.94;1603083;88;21048;-57
2021/06/10 05:05:51;;;;;;;11.12;5.67;;;;;;;15.70;76.75;94471.41;1592828;88;21174;-59
2021/06/10 05:08:18;;;;;;;8.18;5.45;;;;;;;15.73;75.75;94470.44;1586528;88;21033;-57
2021/06/10 05:10:44;;;;;;;13.50;5.37;;;;;;;15.70;75.25;94464.48;1608893;88;20986;-56
2021/06/10 05:13:12;;;;;;;7.72;4.97;;;;;;;15.66;74.72;94468.09;1614549;87;21047;-59
2021/06/10 05:15:39;;;;;;;7.37;4.70;;;;;;;15.64;75.01;94469.20;1571473;90;21577;-57
2021/06/10 05:18:06;;;;;;;5.60;4.55;;;;;;;15.66;74.56;94466.70;1612262;88;21161;-56
2021/06/10 05:20:35;;;;;;;12.45;5.58;;;;;;;15.67;74.78;94467.45;1600781;88;21548;-56
2021/06/10 05:23:02;;;;;;;13.80;6.92;;;;;;;15.68;75.02;94468.36;1606422;88;21083;-56
2021/06/10 05:25:29;;;;;;;9.35;5.67;;;;;;;15.71;75.00;94459.70;1598008;88;21061;-56
2021/06/10 05:27:55;;;;;;;10.80;6.40;;;;;;;15.73;74.78;94460.73;1611534;88;21026;-56
2021/06/10 05:30:22;;;;;;;10.03;5.22;;;;;;;15.75;74.47;94458.87;1604722;88;21149;-59
2021/06/10 05:32:49;;;;;;;10.25;5.47;;;;;;;15.81;74.17;94464.62;1605876;88;21053;-57
2021/06/10 05:35:18;;;;;;;8.33;4.97;;;;;;;15.97;73.87;94466.05;1598904;88;21060;-59
2021/06/10 05:37:46;;;;;;;5.47;4.92;;;;;;;16.14;73.35;94465.59;1554200;89;21086;-58
2021/06/10 05:40:13;;;;;;;6.67;5.58;;;;;;;16.28;72.73;94469.03;1583758;89;20990;-58
2021/06/10 05:42:40;;;;;;;5.50;5.00;;;;;;;16.42;73.43;94464.02;1569250;89;21201;-56
2021/06/10 05:45:09;;;;;;;9.50;5.55;;;;;;;16.58;73.12;94465.41;1584332;87;21012;-58
2021/06/10 05:47:36;;;;;;;5.10;4.37;;;;;;;16.71;72.16;94457.45;1585493;89;21144;-56
2021/06/10 05:50:05;;;;;;;9.43;5.50;;;;;;;16.88;71.43;94461.12;1616895;87;21508;-56
2021/06/10 05:52:32;;;;;;;10.00;6.25;;;;;;;17.04;70.50;94453.50;1615893;87;21034;-55
2021/06/10 05:54:58;;;;;;;7.08;6.33;;;;;;;17.18;69.72;94457.53;1610176;87;21806;-57
2021/06/10 05:57:25;;;;;;;8.23;5.15;;;;;;;17.29;68.76;94458.22;1600355;86;21512;-57
2021/06/10 05:59:52;;;;;;;19.70;8.35;;;;;;;17.40;68.10;94451.34;1598311;88;21120;-59
2021/06/10 06:02:19;;;;;;;6.17;5.53;;;;;;;17.51;67.91;94453.58;1605578;87;21027;-59
2021/06/10 06:04:46;;;;;;;8.58;5.28;;;;;;;17.63;67.02;94457.16;1596739;87;21114;-57
2021/06/10 06:07:13;;;;;;;11.05;5.97;;;;;;;17.66;66.32;94453.38;1603480;86;21756;-58
2021/06/10 06:09:40;;;;;;;6.03;4.90;;;;;;;17.64;66.40;94455.25;1604902;87;21146;-56
2021/06/10 06:12:10;;;;;;;12.95;6.05;;;;;;;17.67;65.84;94450.72;1614213;87;22017;-65
2021/06/10 06:14:38;;;;;;;11.73;6.05;;;;;;;17.71;65.69;94452.63;1610161;87;21144;-56
2021/06/10 06:17:06;;;;;;;11.48;5.67;;;;;;;17.74;65.73;94451.01;1609625;87;21502;-58
2021/06/10 06:19:35;;;;;;;8.08;6.33;;;;;;;17.83;65.42;94452.16;1617010;86;21141;-55
2021/06/10 06:22:07;;;;;;;16.93;10.45;;;;;;;17.92;65.71;94450.57;1610181;87;21046;-56
2021/06/10 06:24:34;;;;;;;11.73;5.97;;;;;;;18.05;66.00;94455.66;1609308;87;21110;-63
2021/06/10 06:27:01;;;;;;;16.10;6.83;;;;;;;18.15;65.30;94447.22;1608150;87;21223;-59
2021/06/10 06:29:34;;;;;;;12.70;5.92;;;;;;;18.23;64.91;94453.16;1614018;87;21151;-58
2021/06/10 06:32:01;;;;;;;19.52;5.25;;;;;;;18.26;64.62;94452.92;1616145;87;21158;-60
2021/06/10 06:34:28;;;;;;;9.60;5.65;;;;;;;18.28;64.61;94446.24;1607577;87;20960;-56
2021/06/10 06:36:55;;;;;;;9.33;5.40;;;;;;;18.32;63.68;94449.53;1612834;87;21007;-63
2021/06/10 06:39:22;;;;;;;6.78;5.03;;;;;;;18.35;63.45;94440.81;1613248;87;21508;-60
2021/06/10 06:41:49;;;;;;;8.03;6.50;;;;;;;18.37;63.45;94457.78;1618729;87;21183;-55
2021/06/10 06:44:16;;;;;;;7.10;5.08;;;;;;;18.34;63.56;94456.78;1595701;88;21776;-57
2021/06/10 06:46:45;;;;;;;12.58;5.10;;;;;;;18.34;63.82;94450.44;1610550;87;21004;-56
2021/06/10 06:49:13;;;;;;;10.55;5.15;;;;;;;18.39;63.81;94446.89;1609043;86;21591;-55
2021/06/10 06:51:39;;;;;;;10.13;5.50;;;;;;;18.48;63.37;94448.06;1598449;87;21072;-56
2021/06/10 06:54:07;;;;;;;6.42;5.33;;;;;;;18.58;63.15;94448.70;1598657;87;21374;-56
2021/06/10 06:56:38;;;;;;;16.97;6.50;;;;;;;18.72;64.16;94456.05;1603841;87;21175;-58
2021/06/10 06:59:06;;;;;;;17.87;7.80;;;;;;;18.83;63.40;94450.47;1616370;87;21512;-55
2021/06/10 07:01:35;;;;;;;11.15;6.87;;;;;;;18.95;63.71;94449.20;1590196;88;21190;-57
2021/06/10 07:04:02;;;;;;;6.78;6.08;;;;;;;19.13;63.72;94450.07;1611152;87;21034;-56
2021/06/10 07:06:29;;;;;;;10.53;5.37;;;;;;;19.30;63.41;94450.83;1612294;87;21102;-57
2021/06/10 07:08:56;;;;;;;7.97;5.47;;;;;;;19.47;63.61;94458.53;1607919;87;21160;-56
2021/06/10 07:11:23;;;;;;;10.75;5.65;;;;;;;19.61;62.86;94456.09;1603019;88;21130;-55
2021/06/10 07:13:49;;;;;;;6.05;5.45;;;;;;;19.74;61.42;94447.90;1604593;87;21226;-56
2021/06/10 07:16:17;;;;;;;13.58;6.60;;;;;;;19.82;60.48;94451.69;1605993;88;21119;-57
2021/06/10 07:18:43;;;;;;;9.40;6.05;;;;;;;19.87;60.51;94451.52;1611337;87;21685;-57
2021/06/10 07:21:10;;;;;;;15.08;5.90;;;;;;;19.85;60.09;94454.08;1613318;87;21084;-54
2021/06/10 07:23:37;;;;;;;12.70;6.55;;;;;;;19.81;60.81;94458.55;1600365;88;21650;-58
2021/06/10 07:26:04;;;;;;;5.67;5.17;;;;;;;19.79;60.47;94463.89;1592302;87;21482;-59
2021/06/10 07:28:31;;;;;;;7.53;5.40;;;;;;;19.78;59.17;94465.14;1601311;88;21021;-56
2021/06/10 07:30:58;;;;;;;19.32;4.90;;;;;;;19.82;57.43;94458.67;1602627;87;21674;-56
2021/06/10 07:33:25;;;;;;;8.80;4.30;;;;;;;19.91;57.06;94458.37;1608963;87;21165;-55
2021/06/10 07:35:52;;;;;;;13.03;6.33;;;;;;;19.98;56.37;94453.66;1608958;87;21061;-55
2021/06/10 07:38:19;;;;;;;10.78;5.55;;;;;;;20.03;57.11;94461.27;1610040;88;22356;-55
2021/06/10 07:40:46;;;;;;;7.92;4.25;;;;;;;20.09;57.57;94460.59;1604973;87;21056;-56
2021/06/10 07:43:14;;;;;;;7.37;4.25;;;;;;;20.15;56.80;94459.92;1605855;87;21109;-56
2021/06/10 07:45:41;;;;;;;7.28;4.65;;;;;;;20.16;55.61;94460.07;1617131;87;21377;-58
2021/06/10 07:48:08;;;;;;;6.40;4.50;;;;;;;20.17;56.74;94457.40;1610060;86;21052;-55
2021/06/10 07:50:35;;;;;;;4.95;3.98;;;;;;;20.16;56.73;94462.87;1599694;87;21524;-58
2021/06/10 07:53:01;;;;;;;5.35;3.92;;;;;;;20.14;57.15;94457.01;1586914;87;21121;-57
2021/06/10 07:55:28;;;;;;;4.78;4.20;;;;;;;20.10;56.59;94463.52;1602040;87;20992;-58
2021/06/10 07:58:01;;;;;;;7.25;5.00;;;;;;;20.02;55.40;94465.34;1603147;87;21235;-54
2021/06/10 08:00:27;;;;;;;5.72;3.77;;;;;;;19.95;54.21;94459.50;1603551;87;21589;-58
2021/06/10 08:02:58;;;;;;;11.35;4.17;;;;;;;19.89;54.10;94456.73;1603754;87;22043;-61
2021/06/10 08:05:24;;;;;;;7.30;4.15;;;;;;;19.93;55.48;94469.78;1613053;87;21626;-58
2021/06/10 08:07:52;;;;;;;5.00;4.53;;;;;;;19.95;53.89;94460.90;1609971;87;21550;-59
2021/06/10 08:10:18;;;;;;;4.37;3.92;;;;;;;19.97;54.98;94452.14;1612542;87;21995;-57
2021/06/10 08:12:47;;;;;;;4.62;4.22;;;;;;;20.02;55.11;94458.36;1606237;87;20953;-57
2021/06/10 08:15:16;;;;;;;7.45;3.55;;;;;;;20.07;54.42;94457.56;1606368;87;22153;-57
2021/06/10 08:17:43;;;;;;;9.75;4.50;;;;;;;20.23;55.77;94456.72;1607848;87;21124;-56
2021/06/10 08:20:12;;;;;;;6.65;4.97;;;;;;;20.46;56.33;94462.30;1611401;87;21152;-56
2021/06/10 08:22:39;;;;;;;6.55;4.08;;;;;;;20.74;56.67;94453.84;1613416;87;21397;-59
2021/06/10 08:25:08;;;;;;;7.83;4.05;;;;;;;21.00;53.48;94464.59;1582952;88;21355;-58
2021/06/10 08:27:38;;;;;;;6.12;3.80;;;;;;;21.12;52.83;94453.44;1604339;87;21211;-59
2021/06/10 08:30:06;;;;;;;5.67;4.50;;;;;;;21.08;53.40;94464.16;1613305;87;21871;-59
2021/06/10 08:32:33;;;;;;;5.12;3.85;;;;;;;21.00;52.42;94468.80;1583252;89;21608;-57
2021/06/10 08:35:00;;;;;;;6.12;3.85;;;;;;;21.04;53.00;94465.06;1589899;88;21421;-59
2021/06/10 08:37:28;;;;;;;7.65;3.72;;;;;;;21.23;52.73;94461.09;1605288;87;21477;-57
2021/06/10 08:39:54;;;;;;;3.83;3.17;;;;;;;21.48;51.58;94459.07;1600610;87;21054;-59
2021/06/10 08:42:21;;;;;;;4.62;3.95;;;;;;;21.71;50.37;94451.97;1613398;87;21065;-56
2021/06/10 08:44:53;;;;;;;9.20;4.20;;;;;;;21.93;51.99;94444.70;1613016;86;21141;-56
2021/06/10 08:47:22;;;;;;;8.50;5.60;;;;;;;22.12;50.56;94439.98;1600653;87;21147;-58
2021/06/10 08:49:50;;;;;;;7.40;6.17;;;;;;;22.32;51.15;94443.67;1598495;87;20992;-57
2021/06/10 08:52:16;;;;;;;10.90;4.28;;;;;;;22.53;50.62;94463.55;1599076;87;21049;-57
2021/06/10 08:54:44;;;;;;;11.45;4.33;;;;;;;22.61;49.09;94457.44;1604123;87;21054;-55
2021/06/10 08:57:11;;;;;;;5.78;3.45;;;;;;;22.45;48.41;94480.89;1599151;87;21060;-58
2021/06/10 08:59:39;;;;;;;3.85;3.25;;;;;;;22.06;46.99;94479.17;1606814;87;21900;-57
2021/06/10 09:02:06;;;;;;;5.17;3.67;;;;;;;21.74;49.03;94476.12;1606891;88;21450;-60
2021/06/10 09:04:37;;;;;;;8.15;4.15;;;;;;;21.51;49.48;94480.41;1604138;87;21911;-56
2021/06/10 09:07:08;;;;;;;4.25;3.60;;;;;;;21.35;49.79;94478.53;1595556;87;21169;-61
2021/06/10 09:09:38;;;;;;;4.25;3.50;;;;;;;21.19;50.10;94482.23;1543409;90;21166;-56
2021/06/10 09:12:08;;;;;;;4.83;3.47;;;;;;;21.08;50.79;94472.55;1610447;87;21512;-57
2021/06/10 09:14:56;;;;;;;4.33;3.02;;;;;;;21.05;50.80;94470.78;1608272;87;21164;-59
2021/06/10 09:17:28;;;;;;;4.85;3.40;;;;;;;21.18;48.69;94480.72;1597735;87;21020;-56
2021/06/10 09:19:55;;;;;;;5.83;3.25;;;;;;;21.35;49.36;94477.13;1575734;89;21164;-59
2021/06/10 09:22:28;;;;;;;5.37;3.40;;;;;;;21.45;48.09;94474.13;1608463;87;21048;-57
2021/06/10 09:25:06;;;;;;;;;;;;;;;21.45;48.06;94478.32;1625006;86;21136;-57
2021/06/10 09:27:33;;;;;;;5.78;4.20;;;;;;;21.45;47.29;94472.06;1614536;87;20236;-60
2021/06/10 09:30:02;;;;;;;9.85;4.45;;;;;;;21.55;47.27;94471.08;1612762;86;21564;-57
2021/06/10 09:32:32;;;;;;;6.67;4.25;;;;;;;21.82;47.94;94457.46;1606970;87;21169;-58
2021/06/10 09:35:04;;;;;;;3.50;3.17;;;;;;;22.16;48.43;94442.50;1614536;87;21667;-58
2021/06/10 09:37:37;;;;;;;3.00;2.70;;;;;;;22.51;47.49;94451.45;1567904;89;21840;-57
2021/06/10 09:40:13;;;;;;;6.72;3.60;;;;;;;22.67;45.31;94457.47;1552044;90;21048;-55
2021/06/10 09:42:41;;;;;;;8.75;3.98;;;;;;;22.65;44.73;94444.63;1568203;89;21097;-57
2021/06/10 09:45:12;;;;;;;4.95;3.83;;;;;;;22.53;45.19;94442.52;1559595;90;21982;-56
2021/06/10 09:47:44;;;;;;;6.80;3.30;;;;;;;22.49;45.63;94437.21;1555927;89;21117;-58
2021/06/10 09:50:42;;;;;;;23.37;6.87;;;;;;;22.59;44.68;94435.55;1554001;91;21805;-59
2021/06/10 09:53:17;;;;;;;4.45;3.02;;;;;;;22.67;45.69;94426.62;1546837;91;21413;-58
2021/06/10 09:56:07;;;;;;;5.15;3.35;;;;;;;22.77;44.12;94434.77;1536405;91;21082;-59
2021/06/10 09:58:42;;;;;;;13.40;4.85;;;;;;;22.80;44.07;94413.31;1582539;88;21054;-58
2021/06/10 10:01:15;;;;;;;5.35;3.37;;;;;;;22.92;43.21;94408.38;1613465;87;21121;-57
2021/06/10 10:03:47;;;;;;;7.78;3.75;;;;;;;22.95;44.15;94408.70;1608159;87;21159;-60
2021/06/10 10:06:25;;;;;;;4.12;3.22;;;;;;;22.82;44.84;94416.34;1608064;88;21096;-57
2021/06/10 10:09:00;;;;;;;6.67;3.17;;;;;;;22.55;45.20;94421.08;1586398;89;21147;-57
2021/06/10 10:11:31;;;;;;;5.25;4.22;;;;;;;22.34;44.16;94424.93;1589107;87;21071;-59
2021/06/10 10:14:04;;;;;;;9.58;8.65;;;;;;;22.12;45.15;94428.78;1605219;87;21028;-57
2021/06/10 10:16:35;;;;;;;15.18;9.23;;;;;;;22.00;45.61;94421.05;1594741;88;21155;-60
2021/06/10 10:19:07;;;;;;;5.22;4.72;;;;;;;21.99;47.54;94418.80;1579194;88;21056;-57
2021/06/10 10:21:37;;;;;;;8.55;4.25;;;;;;;22.14;47.77;94417.05;1551771;91;21575;-57
2021/06/10 10:24:09;;;;;;;9.68;3.87;;;;;;;22.43;47.73;94416.92;1611280;87;21060;-62
2021/06/10 10:26:38;;;;;;;6.42;3.65;;;;;;;22.64;47.89;94415.06;1597102;88;21016;-58
2021/06/10 10:29:10;;;;;;;13.88;4.37;;;;;;;22.86;47.95;94407.70;1608860;87;21188;-57
2021/06/10 10:31:36;;;;;;;10.93;4.75;;;;;;;22.99;47.99;94409.14;1597061;87;21102;-55
2021/06/10 10:34:02;;;;;;;7.42;3.98;;;;;;;22.91;47.72;94406.87;1555320;90;21038;-60
2021/06/10 10:36:37;;;;;;;8.43;4.42;;;;;;;22.68;47.46;94404.95;1600137;87;21110;-56
2021/06/10 10:39:08;;;;;;;21.07;5.00;;;;;;;22.45;47.98;94400.32;1606823;88;21204;-56
2021/06/10 10:41:51;;;;;;;6.17;4.03;;;;;;;22.26;48.52;94402.35;1604965;87;21799;-58
2021/06/10 10:44:26;;;;;;;7.25;3.90;;;;;;;22.14;48.87;94403.78;1592755;88;21110;-57
2021/06/10 10:47:09;;;;;;;6.53;3.70;;;;;;;22.03;49.62;94398.23;1566637;89;21601;-57
2021/06/10 10:49:53;;;;;;;7.70;3.50;;;;;;;22.21;49.69;94397.59;1546778;91;21114;-56
2021/06/10 10:52:27;;;;;;;11.50;4.25;;;;;;;22.60;48.63;94390.79;1555217;88;21046;-56
2021/06/10 10:54:56;;;;;;;;;;;;;;;22.97;46.90;94392.09;1542805;90;21624;-56
2021/06/10 10:57:44;;;;;;;6.92;3.50;;;;;;;23.31;46.50;94380.41;1525431;92;21227;-56
2021/06/10 11:00:13;;;;;;;15.60;3.70;;;;;;;23.45;46.65;94378.36;1539252;91;21607;-58
2021/06/10 11:02:51;;;;;;;9.58;3.98;;;;;;;23.39;45.86;94373.52;1543262;91;21034;-58
2021/06/10 11:05:31;;;;;;;8.23;4.40;;;;;;;23.08;46.22;94372.89;1541466;91;22159;-57
2021/06/10 11:07:58;;;;;;;4.03;3.60;;;;;;;22.79;47.00;94383.72;1550775;89;21238;-58
2021/06/10 11:10:52;;;;;;;3.55;3.17;;;;;;;22.60;48.02;94394.99;1550449;91;21104;-59
2021/06/10 11:13:27;;;;;;;7.10;3.62;;;;;;;22.43;46.00;94400.09;1563032;90;21129;-55
2021/06/10 11:16:04;;;;;;;6.40;3.92;;;;;;;22.08;47.13;94403.11;1547917;91;21130;-56
2021/06/10 11:18:46;;;;;;;5.80;3.60;;;;;;;21.77;48.86;94406.45;1621902;87;21213;-57
2021/06/10 11:21:44;;;;;;;5.33;3.95;;;;;;;21.42;50.57;94403.77;1621728;87;21345;-56
2021/06/10 11:24:15;;;;;;;3.92;3.52;;;;;;;21.16;52.53;94402.14;1561766;90;21686;-57
2021/06/10 11:26:53;;;;;;;5.33;3.77;;;;;;;21.11;53.06;94404.36;1536344;91;22130;-57
2021/06/10 11:29:20;;;;;;;4.12;3.33;;;;;;;21.00;53.13;94397.46;1515690;91;21456;-57
2021/06/10 11:32:27;;;;;;;4.03;3.62;;;;;;;20.88;52.06;94402.41;1564768;91;21089;-55
2021/06/10 11:34:55;;;;;;;4.87;3.83;;;;;;;20.79;53.20;94398.52;1609372;87;21134;-59
2021/06/10 11:37:27;;;;;;;4.05;3.60;;;;;;;20.73;54.86;94399.84;1610516;87;21186;-55
2021/06/10 11:39:54;;;;;;;5.42;4.50;;;;;;;20.75;54.85;94409.88;1566541;90;21196;-57
2021/06/10 11:42:26;;;;;;;4.50;3.52;;;;;;;20.97;55.76;94397.11;1540196;91;21199;-56